Time;durP1;ratioP1;P1;durP2;ratioP2;P2;SDS_P1;SDS_P2;PMS_P1;PMS_P2;Temp;Humidity;BMP_temperature;BMP_pressure;BME280_temperature;BME280_humidity;BME280_pressure;Samples;Min_cycle;Max_cycle;Signal;HPM_P1;HPM_P2
2024/03/01 00:01:13;;;;;;;103.03;30.02;;;;;;;4.40;100.00;97062.28;5014822;28;20041;-60
2024/03/01 00:03:38;;;;;;;120.72;29.23;;;;;;;4.45;100.00;97063.16;5014265;28;20396;-58
2024/03/01 00:06:04;;;;;;;95.90;27.00;;;;;;;3.67;100.00;97056.59;5015291;28;20037;-60
2024/03/01 00:08:29;;;;;;;120.82;27.77;;;;;;;4.07;100.00;97053.44;5013673;28;20021;-62
2024/03/01 00:10:55;;;;;;;99.70;26.38;;;;;;;4.33;100.00;97055.34;5014796;28;20045;-59
2024/03/01 00:13:20;;;;;;;80.32;29.05;;;;;;;4.68;100.00;97052.97;5014013;28;20049;-58
2024/03/01 00:15:45;;;;;;;85.82;24.25;;;;;;;4.51;100.00;97050.34;5014822;28;20064;-60
2024/03/01 00:18:11;;;;;;;87.22;24.90;;;;;;;3.29;100.00;97048.50;5015245;28;20029;-58
2024/03/01 00:20:36;;;;;;;124.43;25.60;;;;;;;2.91;100.00;97046.38;5014023;28;20042;-58
2024/03/01 00:23:01;;;;;;;80.20;17.95;;;;;;;3.74;100.00;97042.91;5013212;28;20021;-60
2024/03/01 00:25:27;;;;;;;141.50;24.02;;;;;;;4.16;100.00;97031.22;5013188;28;20037;-59
2024/03/01 00:27:52;;;;;;;94.95;20.80;;;;;;;3.70;100.00;97020.59;5015129;28;20044;-58
2024/03/01 00:30:18;;;;;;;89.03;23.65;;;;;;;3.79;100.00;97018.13;5014261;28;20025;-60
2024/03/01 00:32:44;;;;;;;104.03;23.83;;;;;;;3.98;100.00;97016.53;5012583;28;20960;-61
2024/03/01 00:35:09;;;;;;;100.70;20.73;;;;;;;4.40;100.00;97018.50;5015387;28;20029;-60
2024/03/01 00:37:34;;;;;;;141.27;29.90;;;;;;;4.58;100.00;97024.59;5014935;28;20124;-58
2024/03/01 00:40:00;;;;;;;111.95;26.92;;;;;;;4.81;100.00;97016.97;5014516;28;20090;-60
2024/03/01 00:42:25;;;;;;;111.13;26.75;;;;;;;4.99;100.00;97023.91;5013067;28;20037;-58
2024/03/01 00:44:51;;;;;;;93.07;25.63;;;;;;;4.17;100.00;97011.50;5014457;28;20026;-58
2024/03/01 00:47:16;;;;;;;94.22;29.27;;;;;;;3.94;100.00;97009.66;5014453;28;20128;-58
2024/03/01 00:49:41;;;;;;;149.50;32.08;;;;;;;4.36;100.00;97004.75;5010614;28;20021;-60
2024/03/01 00:52:07;;;;;;;94.38;25.60;;;;;;;4.60;100.00;97004.88;5014626;28;20053;-59
2024/03/01 00:54:32;;;;;;;118.97;28.55;;;;;;;4.60;100.00;97004.88;5013273;28;20559;-58
2024/03/01 00:56:57;;;;;;;93.22;26.60;;;;;;;4.28;100.00;96999.53;5014985;28;20041;-59
2024/03/01 00:59:23;;;;;;;76.05;23.88;;;;;;;4.35;100.00;97009.91;5014623;28;20454;-58
2024/03/01 01:01:49;;;;;;;113.28;25.95;;;;;;;4.45;100.00;97008.25;5011497;28;20507;-58
2024/03/01 01:04:14;;;;;;;79.40;26.08;;;;;;;4.21;100.00;97005.53;5014533;28;20240;-59
2024/03/01 01:06:39;;;;;;;133.25;30.25;;;;;;;3.92;100.00;96990.75;5012891;28;20128;-59
2024/03/01 01:09:05;;;;;;;101.35;25.90;;;;;;;4.16;100.00;96989.22;5014750;28;20221;-60
2024/03/01 01:11:30;;;;;;;103.45;28.48;;;;;;;4.43;100.00;96996.19;5012003;28;20676;-59
2024/03/01 01:13:56;;;;;;;87.45;25.85;;;;;;;4.35;100.00;96989.31;5013553;28;20264;-59
2024/03/01 01:16:22;;;;;;;101.20;27.77;;;;;;;4.22;100.00;96984.09;5015496;28;20038;-59
2024/03/01 01:18:47;;;;;;;85.10;29.73;;;;;;;4.21;100.00;96991.78;5012703;28;20033;-59
2024/03/01 01:21:13;;;;;;;90.43;34.42;;;;;;;4.32;100.00;96999.56;5012567;28;20437;-59
2024/03/01 01:23:38;;;;;;;129.85;29.30;;;;;;;4.57;100.00;96992.84;5012493;28;20275;-59
2024/03/01 01:26:04;;;;;;;97.28;28.13;;;;;;;3.57;100.00;96989.66;5014577;28;20041;-61
2024/03/01 01:28:29;;;;;;;131.60;58.40;;;;;;;3.12;100.00;96992.66;5010081;28;20045;-60
2024/03/01 01:30:54;;;;;;;94.10;20.38;;;;;;;2.92;100.00;96995.00;5012184;28;20391;-59
2024/03/01 01:33:20;;;;;;;76.28;17.67;;;;;;;3.35;100.00;96986.03;5013973;28;20056;-59
2024/03/01 01:35:45;;;;;;;141.80;28.60;;;;;;;3.16;100.00;96983.28;5011462;28;20105;-60
2024/03/01 01:38:11;;;;;;;102.13;22.95;;;;;;;3.25;100.00;96975.66;5013112;28;20491;-59
2024/03/01 01:40:36;;;;;;;120.70;22.77;;;;;;;3.48;100.00;96974.13;5011385;28;20583;-61
2024/03/01 01:43:03;;;;;;;102.50;19.33;;;;;;;3.73;100.00;96970.06;5012987;28;20507;-61
2024/03/01 01:45:28;;;;;;;107.22;23.75;;;;;;;3.73;100.00;96970.06;5011510;28;20048;-60
2024/03/01 01:47:54;;;;;;;99.53;29.00;;;;;;;3.77;100.00;96963.22;5013246;28;20021;-59
2024/03/01 01:50:20;;;;;;;104.18;30.27;;;;;;;3.80;100.00;96967.50;5012268;28;20055;-60
2024/03/01 01:52:46;;;;;;;144.82;28.67;;;;;;;3.18;100.00;96973.88;5011967;28;20036;-59
2024/03/01 01:55:12;;;;;;;107.18;41.20;;;;;;;2.69;100.00;96961.38;5012263;28;20323;-60
2024/03/01 01:57:40;;;;;;;157.40;30.48;;;;;;;2.97;100.00;96959.97;5011814;28;20025;-60
2024/03/01 02:00:07;;;;;;;100.18;17.95;;;;;;;2.91;100.00;96959.91;5012241;28;20032;-62
2024/03/01 02:02:33;;;;;;;127.50;21.73;;;;;;;3.54;100.00;96970.75;5010499;28;20040;-60
2024/03/01 02:04:59;;;;;;;146.20;53.53;;;;;;;3.18;100.00;96976.44;5013765;28;20018;-59
2024/03/01 02:07:25;;;;;;;91.40;18.08;;;;;;;3.32;100.00;96974.00;5012564;28;20087;-61
2024/03/01 02:09:51;;;;;;;124.85;20.70;;;;;;;3.51;100.00;96959.59;5010801;28;20025;-61
2024/03/01 02:12:17;;;;;;;111.32;19.05;;;;;;;3.54;100.00;96966.47;5012814;28;20201;-62
2024/03/01 02:14:43;;;;;;;133.80;22.40;;;;;;;3.86;100.00;96967.56;5011439;28;20044;-60
2024/03/01 02:17:09;;;;;;;100.45;18.55;;;;;;;4.22;100.00;96957.47;5013131;28;20080;-60
2024/03/01 02:19:35;;;;;;;135.30;23.60;;;;;;;3.93;100.00;96948.72;5010707;28;20108;-60
2024/03/01 02:22:09;;;;;;;102.45;24.02;;;;;;;3.21;100.00;96949.91;5011103;28;20033;-60
2024/03/01 02:24:34;;;;;;;123.25;19.38;;;;;;;3.28;100.00;96950.81;5011411;28;20041;-58
2024/03/01 02:27:00;;;;;;;107.13;19.02;;;;;;;3.59;100.00;96951.06;5012086;28;20033;-60
2024/03/01 02:29:26;;;;;;;95.57;17.70;;;;;;;3.82;100.00;96948.66;5013147;28;20083;-61
2024/03/01 02:31:52;;;;;;;108.15;23.45;;;;;;;3.04;100.00;96942.06;5009782;28;20046;-59
2024/03/01 02:34:17;;;;;;;84.45;18.95;;;;;;;3.63;100.00;96939.97;5012742;28;20372;-59
2024/03/01 02:36:43;;;;;;;132.48;18.98;;;;;;;3.91;100.00;96935.84;5011058;28;20156;-62
2024/03/01 02:39:16;;;;;;;103.55;30.55;;;;;;;3.62;100.00;96931.41;5011964;28;20022;-59
2024/03/01 02:41:45;;;;;;;137.63;21.45;;;;;;;3.51;100.00;96928.75;5010113;28;20124;-63
2024/03/01 02:44:11;;;;;;;82.68;18.27;;;;;;;4.06;100.00;96925.66;5012649;28;20041;-59
2024/03/01 02:46:36;;;;;;;149.57;25.60;;;;;;;4.03;100.00;96929.94;5011104;28;20041;-62
2024/03/01 02:49:03;;;;;;;119.20;22.65;;;;;;;3.35;100.00;96919.19;5012307;28;20111;-62
2024/03/01 02:51:28;;;;;;;101.07;22.10;;;;;;;3.68;100.00;96924.56;5011000;28;20047;-59
2024/03/01 02:53:54;;;;;;;117.90;22.52;;;;;;;3.43;100.00;96929.53;5010167;28;20041;-59
2024/03/01 02:56:19;;;;;;;88.05;22.02;;;;;;;4.01;100.00;96923.91;5012547;28;20052;-62
2024/03/01 02:58:45;;;;;;;149.88;26.55;;;;;;;2.98;100.00;96914.59;5011460;28;20021;-59
2024/03/01 03:01:10;;;;;;;110.15;23.13;;;;;;;3.19;100.00;96926.75;5011172;28;20040;-60
2024/03/01 03:03:35;;;;;;;122.97;21.90;;;;;;;3.59;100.00;96922.78;5010566;28;20034;-58
2024/03/01 03:06:01;;;;;;;103.03;23.10;;;;;;;3.85;100.00;96927.25;5010755;28;20034;-61
2024/03/01 03:08:26;;;;;;;96.07;22.48;;;;;;;4.04;100.00;96926.50;5012342;28;20131;-59
2024/03/01 03:10:51;;;;;;;145.68;25.45;;;;;;;2.92;100.00;96928.22;5010013;28;20120;-63
2024/03/01 03:13:17;;;;;;;100.97;23.60;;;;;;;2.62;100.00;96939.91;5011777;28;20033;-62
2024/03/01 03:15:43;;;;;;;162.43;23.25;;;;;;;3.10;100.00;96948.09;5010020;28;20042;-60
2024/03/01 03:18:08;;;;;;;105.75;18.67;;;;;;;3.39;100.00;96944.91;5012536;28;20057;-62
2024/03/01 03:20:35;;;;;;;76.35;22.38;;;;;;;3.30;100.00;96941.44;5012037;28;20064;-60
2024/03/01 03:23:02;;;;;;;121.63;23.08;;;;;;;2.28;100.00;96939.50;5010992;28;20041;-60
2024/03/01 03:25:28;;;;;;;87.43;19.02;;;;;;;2.82;100.00;96944.41;5011690;28;20041;-58
2024/03/01 03:27:53;;;;;;;111.88;18.42;;;;;;;3.27;100.00;96939.69;5009039;28;20127;-62
2024/03/01 03:30:19;;;;;;;93.78;15.70;;;;;;;3.64;100.00;96936.56;5010149;28;20075;-59
2024/03/01 03:32:45;;;;;;;130.07;22.42;;;;;;;3.94;100.00;96931.59;5010277;28;20048;-59
2024/03/01 03:35:10;;;;;;;107.78;24.55;;;;;;;4.01;100.00;96934.22;5011036;28;20138;-61
2024/03/01 03:37:36;;;;;;;115.88;24.30;;;;;;;3.62;100.00;96933.97;5009954;28;20719;-61
2024/03/01 03:40:13;;;;;;;102.47;20.75;;;;;;;3.68;100.00;96927.16;5011854;28;20453;-60
2024/03/01 03:42:39;;;;;;;140.70;26.65;;;;;;;3.52;100.00;96927.03;5010584;28;20059;-63
2024/03/01 03:45:06;;;;;;;106.53;23.45;;;;;;;2.83;100.00;96931.56;5012012;28;20458;-61
2024/03/01 03:47:32;;;;;;;85.43;19.23;;;;;;;3.59;100.00;96940.78;5011974;28;20385;-60
2024/03/01 03:49:58;;;;;;;137.90;21.25;;;;;;;3.12;100.00;96943.00;5008742;28;20489;-62
2024/03/01 03:52:24;;;;;;;125.05;21.65;;;;;;;3.36;100.00;96946.59;5011673;28;20386;-59
2024/03/01 03:54:49;;;;;;;110.75;22.45;;;;;;;3.72;100.00;96957.19;5011421;28;20092;-59
2024/03/01 03:57:15;;;;;;;87.05;18.92;;;;;;;3.99;100.00;96960.78;5011833;28;20029;-61
2024/03/01 03:59:40;;;;;;;125.38;24.05;;;;;;;4.14;100.00;96965.16;5009934;28;20033;-58
2024/03/01 04:02:05;;;;;;;91.53;21.85;;;;;;;3.51;100.00;96964.75;5010506;28;20100;-61
2024/03/01 04:04:31;;;;;;;119.32;23.73;;;;;;;3.84;100.00;96967.56;5011143;28;20021;-59
2024/03/01 04:06:57;;;;;;;95.65;25.67;;;;;;;3.97;100.00;96963.34;5009854;28;20125;-60
2024/03/01 04:09:23;;;;;;;103.50;34.47;;;;;;;3.58;100.00;96959.63;5012230;28;20782;-59
2024/03/01 04:11:48;;;;;;;138.48;25.50;;;;;;;2.57;100.00;96962.09;5008953;28;20049;-60
2024/03/01 04:14:14;;;;;;;110.10;19.52;;;;;;;2.64;100.00;96963.91;5011196;28;20025;-58
2024/03/01 04:16:39;;;;;;;94.53;18.88;;;;;;;2.73;100.00;96973.41;5010436;28;20135;-59
2024/03/01 04:19:08;;;;;;;104.25;22.85;;;;;;;2.50;100.00;96963.72;5012466;28;20417;-60
2024/03/01 04:21:37;;;;;;;95.28;16.15;;;;;;;2.55;100.00;96976.59;5010002;28;20644;-60
2024/03/01 04:24:08;;;;;;;114.53;24.55;;;;;;;2.55;100.00;96966.34;5011449;28;20064;-60
2024/03/01 04:26:35;;;;;;;93.18;17.23;;;;;;;2.71;100.00;96960.53;5013795;28;20569;-59
2024/03/01 04:29:03;;;;;;;86.15;17.67;;;;;;;2.96;100.00;96963.38;5013048;28;20022;-59
2024/03/01 04:31:28;;;;;;;92.18;16.27;;;;;;;3.31;100.00;96971.41;5015647;28;20038;-59
2024/03/01 04:33:54;;;;;;;100.32;17.63;;;;;;;3.44;100.00;96969.81;5016551;28;20076;-58
2024/03/01 04:36:19;;;;;;;80.88;18.33;;;;;;;3.64;100.00;96978.53;5015779;28;20060;-62
2024/03/01 04:38:44;;;;;;;127.57;23.52;;;;;;;3.48;100.00;96984.41;5014037;28;20021;-60
2024/03/01 04:41:18;;;;;;;84.82;21.15;;;;;;;3.80;100.00;96994.09;5015523;28;20056;-60
2024/03/01 04:43:43;;;;;;;107.82;22.52;;;;;;;3.76;100.00;96994.94;5014751;28;20425;-61
2024/03/01 04:46:09;;;;;;;86.07;18.05;;;;;;;3.03;100.00;96996.81;5017096;28;20967;-58
2024/03/01 04:48:34;;;;;;;110.53;34.22;;;;;;;3.31;100.00;97003.13;5017266;28;20025;-60
2024/03/01 04:50:59;;;;;;;109.93;22.38;;;;;;;3.36;100.00;97003.16;5013221;28;20060;-59
2024/03/01 04:53:24;;;;;;;74.63;18.98;;;;;;;3.55;100.00;96995.59;5016601;28;20209;-58
2024/03/01 04:55:50;;;;;;;80.50;20.23;;;;;;;3.78;100.00;97001.81;5015007;28;20057;-59
2024/03/01 04:58:16;;;;;;;118.53;23.83;;;;;;;3.54;100.00;97006.75;5016422;28;20440;-59
2024/03/01 05:00:42;;;;;;;108.65;23.90;;;;;;;3.36;100.00;97006.59;5013858;28;20075;-58
2024/03/01 05:03:07;;;;;;;91.28;21.20;;;;;;;3.60;100.00;97006.81;5015759;28;20467;-62
2024/03/01 05:05:33;;;;;;;109.72;22.73;;;;;;;3.85;100.00;97002.72;5015203;28;20540;-61
2024/03/01 05:07:58;;;;;;;80.13;20.23;;;;;;;3.69;100.00;97004.31;5015562;28;20080;-60
2024/03/01 05:10:23;;;;;;;88.25;21.25;;;;;;;3.87;100.00;97010.44;5015155;28;20032;-59
2024/03/01 05:12:49;;;;;;;122.25;23.05;;;;;;;3.78;100.00;97018.94;5015740;28;20352;-59
2024/03/01 05:15:15;;;;;;;79.95;21.60;;;;;;;3.94;100.00;97025.09;5015937;28;20075;-59
2024/03/01 05:17:42;;;;;;;96.47;22.88;;;;;;;4.04;100.00;97026.88;5015126;28;20013;-61
2024/03/01 05:20:11;;;;;;;134.45;30.05;;;;;;;3.13;100.00;97032.91;5015023;28;20032;-60
2024/03/01 05:22:38;;;;;;;92.90;18.85;;;;;;;2.96;100.00;97031.84;5015173;28;20037;-59
2024/03/01 05:25:14;;;;;;;92.93;18.35;;;;;;;3.47;100.00;97024.69;5014647;28;20465;-61
2024/03/01 05:27:40;;;;;;;95.75;19.35;;;;;;;3.93;100.00;97022.50;5015697;28;20080;-60
2024/03/01 05:30:08;;;;;;;106.05;24.80;;;;;;;4.08;100.00;97026.91;5015519;28;20027;-60
2024/03/01 05:32:34;;;;;;;116.93;25.23;;;;;;;4.09;100.00;97020.88;5014824;28;20118;-60
2024/03/01 05:35:00;;;;;;;85.20;25.55;;;;;;;4.33;100.00;97020.19;5013175;28;20021;-60
2024/03/01 05:37:25;;;;;;;87.68;21.85;;;;;;;4.06;100.00;97028.56;5015342;28;20420;-59
2024/03/01 05:39:50;;;;;;;139.70;24.85;;;;;;;4.06;100.00;97028.56;5013654;28;20043;-60
2024/03/01 05:42:16;;;;;;;78.25;21.25;;;;;;;4.20;100.00;97024.41;5013614;28;20091;-58
2024/03/01 05:44:42;;;;;;;81.40;23.67;;;;;;;3.75;100.00;97024.06;5014986;28;20036;-58
2024/03/01 05:47:08;;;;;;;110.10;22.95;;;;;;;3.38;100.00;97029.75;5014177;28;20051;-59
2024/03/01 05:49:33;;;;;;;91.78;18.95;;;;;;;3.91;100.00;97030.19;5015226;28;20022;-60
2024/03/01 05:51:58;;;;;;;95.97;17.52;;;;;;;4.17;100.00;97038.09;5013593;28;20669;-59
2024/03/01 05:54:24;;;;;;;106.97;23.27;;;;;;;4.21;100.00;97039.00;5014409;28;20558;-57
2024/03/01 05:56:49;;;;;;;88.15;24.95;;;;;;;4.27;100.00;97036.44;5015155;28;20037;-58
2024/03/01 05:59:15;;;;;;;60.97;19.73;;;;;;;4.33;100.00;97035.63;5015656;28;20576;-58
2024/03/01 06:01:40;;;;;;;123.00;27.98;;;;;;;3.69;100.00;97040.31;5013422;28;20092;-58
2024/03/01 06:04:10;;;;;;;113.38;23.92;;;;;;;3.68;100.00;97038.59;5014054;28;20036;-60
2024/03/01 06:06:35;;;;;;;89.93;20.55;;;;;;;3.15;100.00;97048.34;5014275;28;20329;-59
2024/03/01 06:09:00;;;;;;;104.50;17.95;;;;;;;3.45;100.00;97051.25;5014467;28;20719;-59
2024/03/01 06:11:26;;;;;;;69.28;15.43;;;;;;;3.90;100.00;97044.75;5015091;28;20112;-58
2024/03/01 06:13:51;;;;;;;84.43;14.25;;;;;;;4.42;100.00;97058.00;5015530;28;20055;-57
2024/03/01 06:16:16;;;;;;;96.85;18.58;;;;;;;4.03;100.00;97056.03;5015095;28;20414;-58
2024/03/01 06:18:42;;;;;;;93.97;21.83;;;;;;;3.67;100.00;97061.72;5015033;28;20572;-58
2024/03/01 06:21:07;;;;;;;101.65;19.30;;;;;;;3.49;100.00;97058.13;5013900;28;20045;-60
2024/03/01 06:23:33;;;;;;;103.72;15.93;;;;;;;3.96;100.00;97067.13;5015258;28;20025;-60
2024/03/01 06:25:58;;;;;;;114.82;18.65;;;;;;;4.17;100.00;97071.53;5013732;28;20033;-57
2024/03/01 06:28:24;;;;;;;98.53;33.03;;;;;;;3.33;100.00;97075.09;5015346;28;20014;-60
2024/03/01 06:30:49;;;;;;;137.43;22.08;;;;;;;3.35;100.00;97075.97;5012493;28;20233;-57
2024/03/01 06:33:14;;;;;;;77.93;14.73;;;;;;;4.56;100.00;97079.53;5013622;28;20313;-59
2024/03/01 06:35:40;;;;;;;106.82;27.33;;;;;;;3.64;100.00;97085.72;5013806;28;20804;-59
2024/03/01 06:38:05;;;;;;;131.40;24.30;;;;;;;3.24;100.00;97081.84;5013973;28;20135;-58
2024/03/01 06:40:33;;;;;;;95.78;19.35;;;;;;;2.60;100.00;97093.06;5013287;28;20567;-58
2024/03/01 06:42:59;;;;;;;107.95;17.95;;;;;;;3.31;100.00;97089.66;5012211;28;20496;-60
2024/03/01 06:45:24;;;;;;;105.07;17.08;;;;;;;4.36;100.00;97086.28;5014721;28;20025;-60
2024/03/01 06:47:50;;;;;;;98.40;21.65;;;;;;;3.47;100.00;97083.81;5014119;28;20025;-59
2024/03/01 06:50:15;;;;;;;66.68;15.23;;;;;;;2.54;100.00;97081.00;5013774;28;20017;-57
2024/03/01 06:52:40;;;;;;;96.35;13.80;;;;;;;3.49;100.00;97074.41;5012951;28;20037;-58
2024/03/01 06:55:07;;;;;;;89.22;16.15;;;;;;;2.81;100.00;97073.63;5013692;28;20367;-57
2024/03/01 06:57:33;;;;;;;80.78;16.50;;;;;;;1.77;100.00;97081.53;5014363;28;20383;-59
2024/03/01 06:59:58;;;;;;;163.57;19.88;;;;;;;1.74;100.00;97078.91;5012250;28;20299;-60
2024/03/01 07:02:24;;;;;;;119.80;16.13;;;;;;;1.65;100.00;97079.66;5014112;28;20030;-57
2024/03/01 07:04:49;;;;;;;122.70;15.98;;;;;;;1.98;100.00;97079.31;5014115;28;20025;-60
2024/03/01 07:07:18;;;;;;;93.70;14.85;;;;;;;1.99;100.00;97081.03;5012814;28;20049;-58
2024/03/01 07:09:44;;;;;;;137.63;31.92;;;;;;;1.76;100.00;97077.25;5014195;28;20034;-59
2024/03/01 07:12:09;;;;;;;114.95;15.68;;;;;;;1.59;100.00;97076.94;5013622;28;20041;-60
2024/03/01 07:14:35;;;;;;;106.22;15.38;;;;;;;2.19;100.00;97065.97;5013018;28;20104;-58
2024/03/01 07:17:01;;;;;;;94.07;14.98;;;;;;;2.35;100.00;97069.63;5013578;28;20037;-58
2024/03/01 07:19:26;;;;;;;96.63;18.40;;;;;;;2.17;100.00;97070.19;5014048;28;20484;-59
2024/03/01 07:21:53;;;;;;;123.85;17.23;;;;;;;2.10;100.00;97074.38;5011327;28;20064;-58
2024/03/01 07:24:18;;;;;;;79.43;13.90;;;;;;;2.34;100.00;97070.47;5013475;28;20483;-57
2024/03/01 07:26:44;;;;;;;99.10;15.48;;;;;;;2.58;100.00;97069.06;5013141;28;20049;-59
2024/03/01 07:29:09;;;;;;;99.00;16.45;;;;;;;2.47;100.00;97064.66;5013614;28;20028;-58
2024/03/01 07:31:34;;;;;;;99.90;15.93;;;;;;;2.67;100.00;97060.63;5012942;28;20507;-59
2024/03/01 07:34:00;;;;;;;110.40;19.20;;;;;;;3.08;100.00;97056.84;5012291;28;20137;-59
2024/03/01 07:36:26;;;;;;;88.15;15.32;;;;;;;3.15;100.00;97065.50;5013066;28;20484;-58
2024/03/01 07:38:52;;;;;;;121.57;17.90;;;;;;;3.24;100.00;97063.00;5011913;28;20045;-57
2024/03/01 07:41:21;;;;;;;107.53;16.75;;;;;;;3.46;100.00;97058.94;5012417;28;20032;-58
2024/03/01 07:43:47;;;;;;;85.85;17.00;;;;;;;3.43;100.00;97069.22;5013260;28;20040;-59
2024/03/01 07:46:12;;;;;;;97.35;17.63;;;;;;;3.35;100.00;97070.84;5013513;28;20048;-60
2024/03/01 07:48:37;;;;;;;104.97;19.38;;;;;;;3.64;100.00;97065.97;5013419;28;20021;-58
2024/03/01 07:51:03;;;;;;;128.98;22.10;;;;;;;3.70;100.00;97066.88;5011647;28;20065;-58
2024/03/01 07:53:30;;;;;;;81.15;22.75;;;;;;;3.78;100.00;97071.25;5013544;28;20018;-58
2024/03/01 07:55:56;;;;;;;152.88;23.77;;;;;;;3.81;100.00;97074.69;5011769;28;20410;-59
2024/03/01 07:58:21;;;;;;;93.75;20.67;;;;;;;3.77;100.00;97079.81;5013588;28;20052;-59
2024/03/01 08:00:47;;;;;;;89.28;20.60;;;;;;;3.89;100.00;97078.19;5011383;28;20072;-57
2024/03/01 08:03:13;;;;;;;127.15;20.35;;;;;;;3.80;100.00;97079.00;5011868;28;20781;-59
2024/03/01 08:05:39;;;;;;;91.10;20.63;;;;;;;3.92;100.00;97078.22;5015803;28;20049;-60
2024/03/01 08:08:09;;;;;;;111.60;20.05;;;;;;;4.24;100.00;97076.75;5016988;28;20109;-60
2024/03/01 08:10:39;;;;;;;110.32;20.15;;;;;;;4.77;100.00;97085.66;5015660;28;20037;-58
2024/03/01 08:13:05;;;;;;;121.40;22.33;;;;;;;4.58;100.00;97086.41;5015636;28;20017;-57
2024/03/01 08:15:35;;;;;;;100.43;19.67;;;;;;;5.07;100.00;97084.09;5016469;28;20068;-59
2024/03/01 08:18:14;;;;;;;142.27;27.25;;;;;;;5.17;100.00;97079.84;5014842;28;20051;-58
2024/03/01 08:21:03;;;;;;;93.28;20.42;;;;;;;5.11;100.00;97091.81;5015237;28;20140;-57
2024/03/01 08:23:40;;;;;;;101.15;24.65;;;;;;;5.06;100.00;97087.50;5015986;28;20032;-57
2024/03/01 08:26:26;;;;;;;154.35;23.45;;;;;;;5.58;100.00;97088.53;5014434;28;20585;-61
2024/03/01 08:28:52;;;;;;;107.15;34.78;;;;;;;5.63;100.00;97092.81;5016252;28;20129;-58
2024/03/01 08:31:34;;;;;;;109.03;33.42;;;;;;;5.01;100.00;97096.09;5014465;28;20421;-60
2024/03/01 08:34:15;;;;;;;119.88;34.67;;;;;;;5.21;100.00;97088.44;5015511;28;20025;-59
2024/03/01 08:36:41;;;;;;;101.43;27.60;;;;;;;5.41;100.00;97085.03;5015852;28;20356;-59
2024/03/01 08:39:15;;;;;;;116.20;23.58;;;;;;;5.79;100.00;97089.41;5016145;28;20025;-59
2024/03/01 08:41:45;;;;;;;116.25;27.65;;;;;;;5.53;100.00;97082.50;5014945;28;20383;-59
2024/03/01 08:44:29;;;;;;;93.93;28.88;;;;;;;5.23;100.00;97073.81;5014851;28;20107;-61
2024/03/01 08:46:54;;;;;;;146.02;27.13;;;;;;;5.83;100.00;97078.22;5014738;28;20091;-60
2024/03/01 08:49:31;;;;;;;99.18;23.35;;;;;;;6.32;100.00;97079.16;5016498;28;20080;-59
2024/03/01 08:51:57;;;;;;;140.43;21.95;;;;;;;5.49;100.00;97091.06;5012101;28;20535;-60
2024/03/01 08:54:26;;;;;;;103.45;36.33;;;;;;;5.22;100.00;97087.56;5015877;28;20049;-61
2024/03/01 08:57:28;;;;;;;107.72;24.15;;;;;;;6.32;100.00;97084.31;5014485;28;20037;-57
2024/03/01 08:59:53;;;;;;;139.37;39.37;;;;;;;5.95;100.00;97102.34;5014293;28;20076;-61
2024/03/01 09:02:46;;;;;;;116.50;30.77;;;;;;;6.38;100.00;97094.63;5013937;28;20042;-60
2024/03/01 09:05:11;;;;;;;;;;;;;;;6.18;100.00;97092.06;5015437;28;20027;-60
2024/03/01 09:07:37;;;;;;;121.25;34.75;;;;;;;6.94;100.00;97098.81;5015648;28;20287;-59
2024/03/01 09:10:05;;;;;;;122.57;32.75;;;;;;;6.67;100.00;97092.84;5015132;28;20113;-57
2024/03/01 09:12:30;;;;;;;114.60;38.58;;;;;;;6.87;100.00;97105.72;5015200;28;20033;-58
2024/03/01 09:15:03;;;;;;;138.20;39.28;;;;;;;7.10;100.00;97094.47;5014145;28;20430;-60
2024/03/01 09:17:31;;;;;;;111.22;49.13;;;;;;;7.06;100.00;97099.63;5015592;28;20232;-59
2024/03/01 09:19:58;;;;;;;174.55;47.08;;;;;;;6.89;100.00;97096.25;5014422;28;20505;-59
2024/03/01 09:22:24;;;;;;;109.28;38.00;;;;;;;7.72;100.00;97089.84;5014493;28;20158;-58
2024/03/01 09:24:50;;;;;;;97.38;41.15;;;;;;;8.27;100.00;97075.59;5015789;28;20120;-59
2024/03/01 09:27:18;;;;;;;115.45;33.63;;;;;;;7.82;100.00;97081.13;5014412;28;20033;-58
2024/03/01 09:29:46;;;;;;;86.45;32.90;;;;;;;7.75;100.00;97082.03;5014652;28;20049;-60
2024/03/01 09:32:14;;;;;;;100.88;48.35;;;;;;;8.19;100.00;97078.25;5013672;28;20573;-62
2024/03/01 09:34:40;;;;;;;113.60;42.30;;;;;;;8.22;100.00;97064.41;5014509;28;20029;-60
2024/03/01 09:37:11;;;;;;;112.93;38.72;;;;;;;8.52;100.00;97070.19;5014620;28;20033;-58
2024/03/01 09:39:37;;;;;;;103.75;32.97;;;;;;;8.52;100.00;97069.31;5015167;28;20076;-60
2024/03/01 09:42:05;;;;;;;146.73;45.97;;;;;;;8.61;100.00;97058.88;5011970;28;20076;-58
2024/03/01 09:44:39;;;;;;;73.68;33.95;;;;;;;8.55;100.00;97048.59;5015110;28;20025;-58
2024/03/01 09:47:11;;;;;;;148.80;39.85;;;;;;;8.73;100.00;97037.19;5014100;28;20041;-59
2024/03/01 09:50:03;;;;;;;85.85;24.42;;;;;;;8.72;100.00;97051.00;5014320;28;20036;-62
2024/03/01 09:52:38;;;;;;;118.82;32.05;;;;;;;8.81;100.00;97050.91;5014326;28;20057;-59
2024/03/01 09:55:32;;;;;;;120.95;34.28;;;;;;;9.18;100.00;97039.22;5014548;28;20087;-59
2024/03/01 09:58:07;;;;;;;133.80;39.45;;;;;;;9.26;100.00;97044.31;5013242;28;20037;-58
2024/03/01 10:00:39;;;;;;;143.73;53.70;;;;;;;8.33;100.00;97041.88;5013377;28;20675;-60
2024/03/01 10:03:40;;;;;;;248.25;164.77;;;;;;;7.40;100.00;97051.22;5012367;28;20123;-59
2024/03/01 10:06:27;;;;;;;177.07;59.25;;;;;;;7.20;100.00;97056.47;5011433;28;20033;-59
2024/03/01 10:09:12;;;;;;;162.30;51.63;;;;;;;7.14;100.00;97056.50;5012036;28;20073;-61
2024/03/01 10:11:50;;;;;;;174.68;76.13;;;;;;;7.02;100.00;97057.44;5012793;28;20507;-58
2024/03/01 10:14:43;;;;;;;123.30;42.95;;;;;;;7.21;100.00;97054.75;5013582;28;20177;-57
2024/03/01 10:17:15;;;;;;;200.27;57.80;;;;;;;7.37;100.00;97056.41;5012997;28;20049;-58
2024/03/01 10:19:47;;;;;;;154.07;70.75;;;;;;;7.55;100.00;97055.44;5014332;28;20028;-57
2024/03/01 10:22:24;;;;;;;212.20;100.00;;;;;;;6.81;100.00;97055.78;5012750;28;20045;-59
2024/03/01 10:25:00;;;;;;;189.75;106.85;;;;;;;6.60;100.00;97053.25;5014045;28;20039;-59
2024/03/01 10:27:36;;;;;;;225.30;139.35;;;;;;;6.82;100.00;97063.53;5013119;28;20541;-57
2024/03/01 10:30:15;;;;;;;208.95;72.57;;;;;;;7.24;100.00;97065.94;5013017;28;20503;-59
2024/03/01 10:32:52;;;;;;;169.43;58.17;;;;;;;8.90;100.00;97059.47;5012404;28;20037;-61
2024/03/01 10:35:20;;;;;;;141.23;55.45;;;;;;;9.50;100.00;97058.69;5014091;28;20108;-61
2024/03/01 10:38:00;;;;;;;130.00;48.63;;;;;;;9.43;100.00;97058.81;5013676;28;20028;-61
2024/03/01 10:40:30;;;;;;;119.55;46.83;;;;;;;9.93;100.00;97052.88;5011788;28;20084;-59
2024/03/01 10:43:30;;;;;;;125.32;28.50;;;;;;;10.27;100.00;97050.56;5011205;28;20119;-61
2024/03/01 10:46:14;;;;;;;112.55;28.98;;;;;;;10.00;100.00;97036.31;5011573;28;20609;-59
2024/03/01 10:48:55;;;;;;;89.55;21.38;;;;;;;10.10;100.00;97040.47;5013802;28;20056;-60
2024/03/01 10:51:25;;;;;;;118.40;42.10;;;;;;;11.24;100.00;97040.13;5013181;28;20044;-58
2024/03/01 10:53:55;;;;;;;91.07;28.17;;;;;;;11.17;100.00;97040.25;5012682;28;20264;-61
2024/03/01 10:56:22;;;;;;;91.78;26.80;;;;;;;11.18;100.00;97036.75;5013517;28;20065;-60
2024/03/01 10:59:02;;;;;;;117.65;28.73;;;;;;;11.18;100.00;97035.91;5012311;28;20427;-59
2024/03/01 11:01:34;;;;;;;98.50;29.17;;;;;;;11.47;100.00;97026.56;5012851;28;20033;-61
2024/03/01 11:04:17;;;;;;;134.63;25.60;;;;;;;11.51;100.00;97028.22;5011264;28;20126;-57
2024/03/01 11:06:50;;;;;;;91.75;22.85;;;;;;;11.63;100.00;97028.84;5013289;28;20061;-60
2024/03/01 11:09:24;;;;;;;91.22;22.85;;;;;;;11.67;100.00;97025.28;5011211;28;20018;-61
2024/03/01 11:12:20;;;;;;;98.40;22.98;;;;;;;11.61;100.00;97022.84;5012161;28;20123;-60
2024/03/01 11:14:55;;;;;;;101.35;24.63;;;;;;;11.53;100.00;97029.06;5013754;28;20079;-61
2024/03/01 11:17:25;;;;;;;120.13;23.60;;;;;;;11.79;100.00;97032.81;5013175;28;20125;-59